»·PEaware :: N1507E KSNA-KCRQ

N1507E :: KSNA-KCRQ

FLIGHT INFORMATION

Flight Status: Arrived
Operator: Privately registered:
United States
More flights under this callsign
Pilot: Fabio L. (11512)
Aircraft: CESSNA T210 TURBO CENTURION
(T210)
More flights by this aircraft type
Origin: KSNA John Wayne-Orange Co
United States
Destination: KCRQ McClellan-Palomar
United States
More flights between these airports :: More routes between these airports
Route: V23 OCN
File this flight plan on PilotEdge
Remarks: TEC route CSTP30
Altitude:
(Current/Filed)
5,000ft
Speed:
(Current/Filed)
130kts
Departed: 04-Dec-18 03:39 PM
Arrived: 04-Dec-18 04:17 PM
Distance/Time
Traveled:
44nm/0:37
Distance/Time
To Go:
Arrived

Flight Plot

Page will automatically refresh every two minutes.


Map Options




Map Legend


Flown Route
Filed Route
Departure Airport
Arrival Airport
Navaid (VOR, NDB)
Fix

Horizontal Profiles

Position Reports

Time Latitude Longitude Heading Altitude Ground
Speed
04-Dec-18 15:20 33.675619 -117.871091 39 60ft 0kts
04-Dec-18 15:21 33.675619 -117.871091 39 60ft 0kts
04-Dec-18 15:22 33.675619 -117.871091 39 60ft 0kts
04-Dec-18 15:23 33.675619 -117.871091 39 60ft 0kts
04-Dec-18 15:24 33.675619 -117.871091 39 60ft 0kts
04-Dec-18 15:25 33.675619 -117.871091 39 60ft 0kts
04-Dec-18 15:26 33.675619 -117.871091 39 60ft 0kts
04-Dec-18 15:27 33.675619 -117.871091 39 60ft 0kts
04-Dec-18 15:28 33.675619 -117.871091 39 60ft 0kts
04-Dec-18 15:29 33.675619 -117.871091 39 60ft 0kts
04-Dec-18 15:30 33.675619 -117.871091 39 60ft 0kts
04-Dec-18 15:31 33.675619 -117.871091 39 60ft 0kts
04-Dec-18 15:32 33.675619 -117.871091 39 60ft 0kts
04-Dec-18 15:33 33.675619 -117.871091 39 60ft 0kts
04-Dec-18 15:34 33.675619 -117.871091 39 60ft 0kts
04-Dec-18 15:35 33.677248 -117.869311 26 60ft 18kts
04-Dec-18 15:36 33.681336 -117.866769 76 60ft 10kts
04-Dec-18 15:37 33.681235 -117.866393 116 60ft 0kts
04-Dec-18 15:39 33.676052 -117.868656 207 60ft 74kts
04-Dec-18 15:40 33.667631 -117.873138 150 60ft 0kts
04-Dec-18 15:45 33.675622 -117.871088 38 60ft 0kts
04-Dec-18 15:46 33.675622 -117.871088 38 60ft 0kts
04-Dec-18 15:47 33.675622 -117.871088 38 60ft 0kts
04-Dec-18 15:48 33.675622 -117.871088 38 60ft 0kts
04-Dec-18 15:49 33.675623 -117.871087 38 60ft 0kts
04-Dec-18 15:50 33.675623 -117.871087 38 60ft 0kts
04-Dec-18 15:51 33.675623 -117.871087 38 60ft 0kts
04-Dec-18 15:52 33.675640 -117.871070 39 60ft 4kts
04-Dec-18 15:53 33.679729 -117.867966 27 60ft 20kts
04-Dec-18 15:54 33.681244 -117.866454 115 60ft 0kts
04-Dec-18 15:55 33.674037 -117.869245 197 189ft 77kts
04-Dec-18 15:56 33.647725 -117.872624 186 1000ft 108kts
04-Dec-18 15:57 33.618096 -117.875729 186 1973ft 109kts
04-Dec-18 15:58 33.589914 -117.870831 116 2977ft 118kts
04-Dec-18 15:58 33.585136 -117.838638 101 3802ft 121kts
04-Dec-18 15:59 33.572306 -117.804255 140 4792ft 115kts
04-Dec-18 16:00 33.545516 -117.773565 139 5016ft 155kts
04-Dec-18 16:02 33.509295 -117.731025 139 5009ft 158kts
04-Dec-18 16:02 33.483434 -117.700655 139 5009ft 159kts
04-Dec-18 16:03 33.451950 -117.663758 139 5009ft 161kts
04-Dec-18 16:05 33.414769 -117.620247 139 5010ft 163kts
04-Dec-18 16:05 33.387967 -117.588915 138 5002ft 166kts
04-Dec-18 16:06 33.355010 -117.550424 139 4999ft 167kts
04-Dec-18 16:07 33.322157 -117.512098 139 5003ft 165kts
04-Dec-18 16:08 33.289478 -117.474001 139 5005ft 164kts
04-Dec-18 16:09 33.257268 -117.436497 140 5003ft 162kts
04-Dec-18 16:10 33.225877 -117.399265 138 5002ft 161kts
04-Dec-18 16:11 33.194607 -117.360773 138 4748ft 171kts
04-Dec-18 16:12 33.168562 -117.314054 111 3136ft 183kts
04-Dec-18 16:13 33.156059 -117.260307 129 1631ft 173kts
04-Dec-18 16:14 33.133297 -117.252114 255 945ft 80kts
04-Dec-18 16:15 33.129123 -117.274903 257 344ft 66kts
04-Dec-18 16:16 33.127317 -117.282753 182 335ft 0kts
04-Dec-18 16:17 33.127317 -117.282753 182 335ft 0kts
04-Dec-18 16:18 33.127519 -117.279428 80 335ft 19kts
04-Dec-18 16:19 33.126980 -117.276920 260 335ft 0kts

Navigation Log

Ident Type
Flight plan parsing failed, navigation log unavailable